Anchialos, Greece

12:18 PM EET on March 27, 2015 (GMT +0200)
Almiros Air Base | | Change Station
CLOSE
Current Station
Airport
Location: Anchialos,
Elevation: 82 ft
Nearby Weather Stations
Active Advisory: Thunderstorms

Elev 82 ft 39.22 °N, 22.79 °E | Updated 28 minutes ago

Overcast
Overcast
55 °F
Feels Like 55 °F
N
5
Wind Variable Wind from West

Today
High -- | Low -- °F
--% Chance of Precip.
Yesterday
High -- | Low -- °F
Precip. -- in
6:21 AM 6:47 PM
Waxing Crescent, 51% visible
Pressure 29.62 in
Visibility 4.3 miles
Clouds Scattered Clouds 600 ft
Overcast 2000 ft
Dew Point 54 °F
Humidity 94%
Rainfall 0.00 in
Snow Depth Not available.
UV 2 out of 12
Pollen Not available.
Air Quality Not available.
Flu Activity Not available.
METAR LGBL 270950Z 26004KT 7000 SCT006 OVC020 13/12 Q1003

More Conditions Fewer Conditions

Pressure 29.62 in
Visibility 4.3 miles
Clouds Scattered Clouds 600 ft
Overcast 2000 ft
Dew Point 54 °F
Humidity 94%
Rainfall 0.00 in
Snow Depth Not available.
UV 2 out of 12
Pollen Not available.
Air Quality Not available.
Flu Activity Not available.
METAR LGBL 270950Z 26004KT 7000 SCT006 OVC020 13/12 Q1003

More Conditions Fewer Conditions

10-Day Weather Forecast

Almanac

Astronomy

Mar. 27, 2015 Rise Set
Actual Time
Civil Twilight
Nautical Twilight
Astronomical Twilight
Moon
Length of Visible Light
Length of Day
Tomorrow will be .
, % of the Moon is Illuminated

Today's Extremes

Country Highs Country Lows

Community

WunderPhotos

Upload Photos

1,808,705 photos uploaded!

WunderBlogs® & News

Nearby

Air Quality

  Air Quality AQ Index Pollutant
Not available.

Snow Depth

Station Depth Elevation

Earthquake Activity

City Distance Mag. Time & Date
Minimum magnitude displayed is 2.5.

Coastal Water Temperatures

Place Temperature

Stations

Nearby Weather Stations

Station Location Temp. Windchill Dew Point Humidity Wind Precip. Elev Updated Type